Time;durP1;ratioP1;P1;durP2;ratioP2;P2;SDS_P1;SDS_P2;PMS_P1;PMS_P2;Temp;Humidity;BMP_temperature;BMP_pressure;BME280_temperature;BME280_humidity;BME280_pressure;Samples;Min_cycle;Max_cycle;Signal;HPM_P1;HPM_P2
2023/06/23 00:00:22;;;;;;;4.88;4.38;;;;;20.70;98678.00;;;;5074414;28;20068;-61
2023/06/23 00:02:49;;;;;;;6.55;5.50;;;;;20.50;98676.00;;;;5074505;28;20064;-61
2023/06/23 00:05:16;;;;;;;6.75;4.85;;;;;20.40;98675.00;;;;5074564;28;20401;-61
2023/06/23 00:07:43;;;;;;;6.10;5.25;;;;;20.40;98677.00;;;;5073130;28;20037;-61
2023/06/23 00:10:10;;;;;;;6.10;5.03;;;;;20.50;98672.00;;;;5072999;28;20413;-60
2023/06/23 00:12:41;;;;;;;5.68;5.07;;;;;20.50;98679.00;;;;5074333;28;20047;-61
2023/06/23 00:15:13;;;;;;;6.60;5.50;;;;;20.50;98676.00;;;;5074249;28;20056;-61
2023/06/23 00:17:44;;;;;;;5.95;5.15;;;;;20.50;98671.00;;;;5074174;28;20042;-60
2023/06/23 00:20:14;;;;;;;5.95;4.97;;;;;20.50;98678.00;;;;5073964;28;20048;-60
2023/06/23 00:22:43;;;;;;;6.38;5.63;;;;;20.40;98673.00;;;;5072951;28;20052;-61
2023/06/23 00:25:12;;;;;;;6.25;5.60;;;;;20.40;98674.00;;;;5072642;28;20048;-60
2023/06/23 00:27:39;;;;;;;5.70;5.10;;;;;20.40;98671.00;;;;5074227;28;20389;-61
2023/06/23 00:30:07;;;;;;;5.85;5.25;;;;;20.40;98670.00;;;;5073818;28;20047;-60
2023/06/23 00:32:34;;;;;;;5.82;5.22;;;;;20.40;98686.00;;;;5072665;28;20147;-61
2023/06/23 00:35:01;;;;;;;6.32;5.05;;;;;20.30;98676.00;;;;5074408;28;20074;-61
2023/06/23 00:37:31;;;;;;;6.13;5.15;;;;;20.30;98677.00;;;;5073527;28;20055;-61
2023/06/23 00:39:58;;;;;;;6.55;5.57;;;;;20.30;98678.00;;;;5072480;28;20076;-61
2023/06/23 00:42:25;;;;;;;6.72;5.50;;;;;20.20;98693.00;;;;5073699;28;20041;-61
2023/06/23 00:44:53;;;;;;;6.20;5.60;;;;;20.20;98691.00;;;;5072427;28;20045;-61
2023/06/23 00:47:20;;;;;;;7.00;5.47;;;;;20.20;98690.00;;;;5072604;28;20451;-63
2023/06/23 00:49:48;;;;;;;7.20;6.07;;;;;20.10;98689.00;;;;5072385;28;20048;-61
2023/06/23 00:52:16;;;;;;;7.80;6.20;;;;;20.20;98695.00;;;;5073441;28;20128;-61
2023/06/23 00:54:42;;;;;;;6.30;5.35;;;;;20.20;98700.00;;;;5073309;28;20044;-59
2023/06/23 00:57:11;;;;;;;7.72;6.05;;;;;20.20;98704.00;;;;5073206;28;20535;-59
2023/06/23 00:59:37;;;;;;;6.95;6.00;;;;;20.20;98702.00;;;;5072315;28;20048;-59
2023/06/23 01:02:04;;;;;;;7.03;6.30;;;;;20.20;98708.00;;;;5073719;28;20497;-59
2023/06/23 01:04:32;;;;;;;9.85;6.40;;;;;20.20;98709.00;;;;5077990;28;20045;-60
2023/06/23 01:07:12;;;;;;;9.43;7.50;;;;;20.10;98712.00;;;;5076697;28;20044;-60
2023/06/23 01:10:12;;;;;;;7.80;6.80;;;;;20.10;98722.00;;;;5072256;28;20072;-60
2023/06/23 01:12:59;;;;;;;6.72;5.90;;;;;20.10;98723.00;;;;5071834;28;20098;-59
2023/06/23 01:15:44;;;;;;;7.70;6.70;;;;;20.00;98729.00;;;;5072014;28;20055;-60
2023/06/23 01:18:32;;;;;;;8.13;7.07;;;;;20.00;98741.00;;;;5071544;28;20453;-60
2023/06/23 01:21:03;;;;;;;9.25;6.80;;;;;20.10;98749.00;;;;5072915;28;20059;-60
2023/06/23 01:23:49;;;;;;;9.10;6.57;;;;;20.20;98745.00;;;;5071863;28;20068;-60
2023/06/23 01:26:41;;;;;;;7.30;6.50;;;;;20.20;98765.00;;;;5072672;28;20587;-61
2023/06/23 01:29:09;;;;;;;10.80;6.45;;;;;20.20;98765.00;;;;5062192;28;20059;-61
2023/06/23 01:32:00;;;;;;;6.68;5.95;;;;;20.20;98768.00;;;;5072760;28;20037;-60
2023/06/23 01:34:43;;;;;;;6.70;6.00;;;;;20.20;98769.00;;;;5070615;28;20075;-60
2023/06/23 01:37:18;;;;;;;7.82;6.60;;;;;20.20;98770.00;;;;5070777;28;20064;-61
2023/06/23 01:39:50;;;;;;;8.18;6.40;;;;;20.30;98771.00;;;;5070597;28;20052;-60
2023/06/23 01:42:19;;;;;;;7.93;6.72;;;;;20.30;98764.00;;;;5070518;28;20087;-61
2023/06/23 01:44:49;;;;;;;8.85;6.57;;;;;20.20;98766.00;;;;5071598;28;20625;-61
2023/06/23 01:47:21;;;;;;;9.73;7.22;;;;;20.20;98770.00;;;;5070653;28;20389;-61
2023/06/23 01:49:51;;;;;;;7.47;6.70;;;;;20.20;98768.00;;;;5070269;28;20060;-63
2023/06/23 01:52:22;;;;;;;7.75;6.95;;;;;20.20;98771.00;;;;5071800;28;20459;-61
2023/06/23 01:54:50;;;;;;;10.60;7.72;;;;;20.20;98775.00;;;;5072013;28;20436;-60
2023/06/23 01:57:20;;;;;;;8.45;7.55;;;;;20.30;98774.00;;;;5070553;28;20417;-59
2023/06/23 01:59:48;;;;;;;9.75;7.43;;;;;20.30;98768.00;;;;5071464;28;20434;-60
2023/06/23 02:02:16;;;;;;;8.85;7.90;;;;;20.30;98780.00;;;;5070468;28;20051;-58
2023/06/23 02:04:45;;;;;;;9.82;7.90;;;;;20.30;98775.00;;;;5070676;28;20087;-60
2023/06/23 02:07:17;;;;;;;11.02;8.90;;;;;20.30;98775.00;;;;5070412;28;20050;-59
2023/06/23 02:09:45;;;;;;;11.18;8.15;;;;;20.20;98774.00;;;;5069870;28;20072;-60
2023/06/23 02:12:13;;;;;;;9.60;8.48;;;;;20.20;98776.00;;;;5071047;28;20120;-60
2023/06/23 02:14:41;;;;;;;10.88;9.75;;;;;20.10;98783.00;;;;5070761;28;20051;-60
2023/06/23 02:17:09;;;;;;;12.73;9.88;;;;;20.10;98776.00;;;;5071440;28;20119;-60
2023/06/23 02:19:39;;;;;;;11.93;9.32;;;;;20.00;98776.00;;;;5070076;28;20045;-59
2023/06/23 02:22:11;;;;;;;14.25;11.23;;;;;20.00;98779.00;;;;5070483;28;20040;-60
2023/06/23 02:24:39;;;;;;;13.70;10.80;;;;;20.00;98773.00;;;;5071852;28;20049;-60
2023/06/23 02:27:07;;;;;;;12.80;11.50;;;;;19.90;98783.00;;;;5072846;28;20102;-60
2023/06/23 02:29:39;;;;;;;12.13;10.77;;;;;19.90;98780.00;;;;5073148;28;20040;-60
2023/06/23 02:32:07;;;;;;;13.73;11.98;;;;;19.90;98781.00;;;;5072485;28;20072;-60
2023/06/23 02:34:37;;;;;;;16.27;13.18;;;;;19.80;98783.00;;;;5035024;28;1046980;-60
2023/06/23 02:37:09;;;;;;;16.92;12.98;;;;;19.80;98783.00;;;;5071163;28;20052;-61
2023/06/23 02:39:41;;;;;;;13.50;12.10;;;;;19.80;98787.00;;;;5072191;28;20505;-59
2023/06/23 02:42:12;;;;;;;17.60;13.85;;;;;19.80;98799.00;;;;5071303;28;20051;-60
2023/06/23 02:44:49;;;;;;;18.80;14.18;;;;;19.80;98800.00;;;;5071702;28;20076;-61
2023/06/23 02:47:19;;;;;;;18.55;14.10;;;;;19.80;98795.00;;;;5072857;28;20076;-60
2023/06/23 02:49:50;;;;;;;17.02;14.07;;;;;19.70;98798.00;;;;5072774;28;20051;-60
2023/06/23 02:52:18;;;;;;;18.55;13.43;;;;;19.70;98798.00;;;;5073571;28;20127;-59
2023/06/23 02:54:49;;;;;;;19.00;14.50;;;;;19.70;98799.00;;;;5072041;28;20079;-60
2023/06/23 02:57:18;;;;;;;19.27;15.30;;;;;19.70;98795.00;;;;5074580;28;20098;-60
2023/06/23 02:59:49;;;;;;;18.60;14.98;;;;;19.70;98804.00;;;;5074024;28;20071;-60
2023/06/23 03:02:17;;;;;;;18.55;15.95;;;;;19.70;98802.00;;;;5071804;28;20171;-60
2023/06/23 03:04:46;;;;;;;19.35;15.60;;;;;19.60;98796.00;;;;5075275;28;20044;-60
2023/06/23 03:07:13;;;;;;;21.10;15.93;;;;;19.60;98803.00;;;;5075280;28;20049;-60
2023/06/23 03:09:39;;;;;;;17.85;15.90;;;;;19.60;98793.00;;;;5073402;28;20055;-60
2023/06/23 03:12:06;;;;;;;19.30;16.15;;;;;19.50;98796.00;;;;5073702;28;20129;-60
2023/06/23 03:14:33;;;;;;;22.67;18.13;;;;;19.50;98798.00;;;;5073466;28;20056;-59
2023/06/23 03:17:11;;;;;;;23.60;18.35;;;;;19.40;98802.00;;;;5072483;28;20505;-60
2023/06/23 03:19:43;;;;;;;26.08;18.38;;;;;19.40;98806.00;;;;5073451;28;20114;-60
2023/06/23 03:22:15;;;;;;;22.48;18.95;;;;;19.40;98824.00;;;;5072089;28;20044;-60
2023/06/23 03:24:45;;;;;;;22.42;18.80;;;;;19.40;98829.00;;;;5071936;28;20131;-61
2023/06/23 03:27:13;;;;;;;22.85;19.25;;;;;19.40;98833.00;;;;5071406;28;20114;-60
2023/06/23 03:29:55;;;;;;;29.98;20.80;;;;;19.50;98834.00;;;;5071808;28;20033;-60
2023/06/23 03:32:34;;;;;;;26.60;20.75;;;;;19.50;98845.00;;;;5071554;28;20050;-59
2023/06/23 03:35:10;;;;;;;25.77;20.48;;;;;19.50;98839.00;;;;5075953;28;20051;-61
2023/06/23 03:37:42;;;;;;;23.38;19.55;;;;;19.50;98843.00;;;;5074877;28;20064;-60
2023/06/23 03:40:13;;;;;;;25.95;21.33;;;;;19.60;98850.00;;;;5075082;28;20079;-61
2023/06/23 03:42:46;;;;;;;26.60;21.23;;;;;19.60;98848.00;;;;5076272;28;20044;-60
2023/06/23 03:45:16;;;;;;;27.15;23.13;;;;;19.60;98855.00;;;;5076658;28;20083;-61
2023/06/23 03:47:45;;;;;;;28.77;24.13;;;;;19.50;98859.00;;;;5076938;28;20234;-60
2023/06/23 03:50:17;;;;;;;27.35;23.33;;;;;19.50;98859.00;;;;5075563;28;20409;-60
2023/06/23 03:52:45;;;;;;;30.45;23.95;;;;;19.50;98862.00;;;;5077515;28;20512;-61
2023/06/23 03:55:13;;;;;;;30.83;25.48;;;;;19.50;98863.00;;;;5076707;28;20468;-61
2023/06/23 03:57:44;;;;;;;33.45;25.05;;;;;19.50;98876.00;;;;5077122;28;20045;-60
2023/06/23 04:00:17;;;;;;;34.30;26.48;;;;;19.50;98882.00;;;;5078501;28;20044;-61
2023/06/23 04:02:47;;;;;;;35.05;27.83;;;;;19.50;98882.00;;;;5078333;28;20110;-60
2023/06/23 04:05:15;;;;;;;33.85;28.08;;;;;19.60;98880.00;;;;5074909;28;20101;-59
2023/06/23 04:07:44;;;;;;;35.67;28.05;;;;;19.50;98882.00;;;;5076129;28;20121;-60
2023/06/23 04:10:13;;;;;;;38.28;28.30;;;;;19.50;98885.00;;;;5074041;28;20151;-60
2023/06/23 04:12:42;;;;;;;34.67;28.30;;;;;19.40;98894.00;;;;5074976;28;20087;-60
2023/06/23 04:15:10;;;;;;;33.85;27.98;;;;;19.40;98888.00;;;;5073715;28;20072;-60
2023/06/23 04:17:39;;;;;;;35.70;28.45;;;;;19.40;98885.00;;;;5075004;28;20052;-61
2023/06/23 04:20:07;;;;;;;36.80;27.80;;;;;19.40;98900.00;;;;5076662;28;20044;-59
2023/06/23 04:22:38;;;;;;;38.15;28.85;;;;;19.40;98895.00;;;;5073826;28;20044;-59
2023/06/23 04:25:06;;;;;;;44.72;29.77;;;;;19.50;98908.00;;;;5074536;28;20485;-60
2023/06/23 04:27:35;;;;;;;40.00;30.60;;;;;19.40;98902.00;;;;5074724;28;20135;-61
2023/06/23 04:30:05;;;;;;;38.13;31.10;;;;;19.40;98907.00;;;;5075129;28;20032;-61
2023/06/23 04:32:34;;;;;;;35.47;29.38;;;;;19.40;98916.00;;;;5075464;28;20190;-59
2023/06/23 04:35:01;;;;;;;44.85;30.95;;;;;19.50;98912.00;;;;5075333;28;20044;-61
2023/06/23 04:37:38;;;;;;;37.78;30.35;;;;;19.60;98912.00;;;;5075285;28;20120;-61
2023/06/23 04:40:11;;;;;;;38.60;31.30;;;;;19.50;98916.00;;;;5073720;28;20041;-61
2023/06/23 04:42:44;;;;;;;43.50;31.95;;;;;19.60;98924.00;;;;5075161;28;20078;-60
2023/06/23 04:45:17;;;;;;;41.80;30.63;;;;;19.60;98920.00;;;;5072888;28;20083;-62
2023/06/23 04:47:47;;;;;;;41.53;32.22;;;;;19.60;98928.00;;;;5075547;28;20044;-63
2023/06/23 04:50:15;;;;;;;42.00;33.20;;;;;19.60;98932.00;;;;5075552;28;20040;-60
2023/06/23 04:52:49;;;;;;;43.22;31.80;;;;;19.80;98934.00;;;;5075341;28;20048;-61
2023/06/23 04:55:19;;;;;;;39.75;31.50;;;;;19.90;98941.00;;;;5075918;28;20561;-61
2023/06/23 04:57:48;;;;;;;37.17;30.50;;;;;19.90;98948.00;;;;5075668;28;20044;-59
2023/06/23 05:00:21;;;;;;;42.88;33.30;;;;;20.10;98944.00;;;;5074746;28;20044;-60
2023/06/23 05:02:49;;;;;;;44.08;34.08;;;;;20.10;98953.00;;;;5073743;28;20064;-61
2023/06/23 05:05:23;;;;;;;43.63;31.60;;;;;20.10;98965.00;;;;5074520;28;20102;-60
2023/06/23 05:07:51;;;;;;;43.42;32.95;;;;;20.00;98968.00;;;;5074309;28;20481;-61
2023/06/23 05:10:22;;;;;;;35.75;29.40;;;;;20.00;98972.00;;;;5074638;28;20040;-59
2023/06/23 05:12:50;;;;;;;42.47;31.02;;;;;20.00;98970.00;;;;5080200;28;20589;-60
2023/06/23 05:15:21;;;;;;;39.13;30.58;;;;;20.10;98976.00;;;;5075963;28;20052;-60
2023/06/23 05:17:51;;;;;;;38.33;30.70;;;;;20.10;98983.00;;;;5076497;28;20059;-61
2023/06/23 05:20:21;;;;;;;43.08;32.45;;;;;20.10;98978.00;;;;5076976;28;20043;-59
2023/06/23 05:22:50;;;;;;;45.22;31.08;;;;;20.20;98990.00;;;;5074291;28;20044;-61
2023/06/23 05:25:19;;;;;;;37.28;29.92;;;;;20.30;98984.00;;;;5073498;28;20191;-61
2023/06/23 05:27:49;;;;;;;38.08;30.63;;;;;20.40;98991.00;;;;5074373;28;20409;-61
2023/06/23 05:30:18;;;;;;;38.38;30.15;;;;;20.60;98990.00;;;;5071825;28;20555;-61
2023/06/23 05:32:48;;;;;;;35.30;28.40;;;;;20.70;98997.00;;;;5072018;28;20075;-61
2023/06/23 05:35:16;;;;;;;34.63;28.70;;;;;20.80;98993.00;;;;5072912;28;20102;-61
2023/06/23 05:37:44;;;;;;;34.10;27.95;;;;;20.90;98992.00;;;;5072848;28;20044;-60
2023/06/23 05:40:15;;;;;;;32.70;26.25;;;;;20.90;98990.00;;;;5073383;28;20101;-61
2023/06/23 05:42:45;;;;;;;38.70;28.58;;;;;20.90;99006.00;;;;5071740;28;20051;-61
2023/06/23 05:45:12;;;;;;;38.88;26.80;;;;;20.80;99011.00;;;;5073212;28;20044;-61
2023/06/23 05:48:17;;;;;;;32.90;26.10;;;;;21.00;99014.00;;;;5072602;28;20049;-61
2023/06/23 05:50:46;;;;;;;29.60;22.48;;;;;21.00;99023.00;;;;5072448;28;20040;-61
2023/06/23 05:53:17;;;;;;;29.70;23.33;;;;;21.10;99024.00;;;;5072885;28;20124;-60
2023/06/23 05:55:51;;;;;;;25.80;21.48;;;;;21.20;99027.00;;;;5072633;28;20070;-61
2023/06/23 05:58:22;;;;;;;24.30;19.13;;;;;21.30;99031.00;;;;5071582;28;20565;-61
2023/06/23 06:00:54;;;;;;;19.40;16.00;;;;;21.30;99019.00;;;;5072629;28;20049;-61
2023/06/23 06:03:26;;;;;;;19.70;15.73;;;;;21.40;99018.00;;;;5071481;28;20036;-62
2023/06/23 06:05:58;;;;;;;17.35;14.90;;;;;21.60;99030.00;;;;5072718;28;20110;-61
2023/06/23 06:08:27;;;;;;;17.10;13.57;;;;;21.80;99029.00;;;;5073514;28;20044;-62
2023/06/23 06:10:56;;;;;;;17.30;12.30;;;;;22.00;99038.00;;;;5082810;28;20052;-59
2023/06/23 06:13:24;;;;;;;13.85;11.82;;;;;22.10;99037.00;;;;5073962;28;20044;-60
2023/06/23 06:15:53;;;;;;;13.18;11.15;;;;;22.20;99044.00;;;;5072918;28;20489;-61
2023/06/23 06:18:22;;;;;;;12.30;11.00;;;;;22.30;99043.00;;;;5070844;28;20083;-60
2023/06/23 06:20:50;;;;;;;13.50;10.63;;;;;22.40;99049.00;;;;5072357;28;20040;-60
2023/06/23 06:23:19;;;;;;;12.40;10.38;;;;;22.20;99049.00;;;;5071290;28;20048;-60
2023/06/23 06:25:53;;;;;;;17.45;10.40;;;;;22.30;99056.00;;;;5072127;28;20048;-60
2023/06/23 06:28:21;;;;;;;10.00;8.85;;;;;22.40;99061.00;;;;5071782;28;20043;-61
2023/06/23 06:30:50;;;;;;;15.02;9.23;;;;;22.40;99065.00;;;;5071713;28;20040;-59
2023/06/23 06:33:19;;;;;;;10.73;8.77;;;;;22.40;99062.00;;;;5070859;28;20555;-64
2023/06/23 06:35:48;;;;;;;10.13;8.27;;;;;22.30;99070.00;;;;5070703;28;20044;-60
2023/06/23 06:38:16;;;;;;;9.23;8.23;;;;;22.30;99065.00;;;;5071671;28;20090;-60
2023/06/23 06:40:46;;;;;;;10.38;8.07;;;;;22.40;99066.00;;;;5071580;28;20047;-60
2023/06/23 06:43:13;;;;;;;8.45;7.63;;;;;22.40;99078.00;;;;5071769;28;20607;-59
2023/06/23 06:45:40;;;;;;;10.48;7.65;;;;;22.40;99077.00;;;;5070194;28;20596;-60
2023/06/23 06:48:08;;;;;;;9.77;7.25;;;;;22.40;99084.00;;;;5071382;28;20040;-59
2023/06/23 06:50:36;;;;;;;8.55;7.35;;;;;22.40;99082.00;;;;5071570;28;20392;-59
2023/06/23 06:53:04;;;;;;;8.88;7.70;;;;;22.50;99086.00;;;;5070936;28;20465;-61
2023/06/23 06:55:31;;;;;;;9.23;7.55;;;;;22.50;99088.00;;;;5070051;28;20566;-63
2023/06/23 06:57:58;;;;;;;8.13;7.32;;;;;22.50;99096.00;;;;5070305;28;20050;-64
2023/06/23 07:00:25;;;;;;;10.77;6.50;;;;;22.40;99108.00;;;;5071483;28;20052;-64
2023/06/23 07:02:56;;;;;;;7.18;6.45;;;;;22.50;99107.00;;;;5070274;28;20562;-64
2023/06/23 07:05:23;;;;;;;7.90;7.10;;;;;22.70;99106.00;;;;5071862;28;20456;-64
2023/06/23 07:07:49;;;;;;;6.93;5.45;;;;;22.90;99125.00;;;;5072252;28;20132;-64
2023/06/23 07:10:16;;;;;;;7.05;6.35;;;;;22.90;99120.00;;;;5075334;28;20127;-65
2023/06/23 07:12:43;;;;;;;6.65;5.70;;;;;23.00;99126.00;;;;5075515;28;20097;-64
2023/06/23 07:15:10;;;;;;;6.65;5.57;;;;;23.00;99135.00;;;;5075380;28;20444;-64
2023/06/23 07:17:36;;;;;;;10.13;5.60;;;;;22.90;99128.00;;;;5075313;28;20043;-65
2023/06/23 07:20:07;;;;;;;9.65;6.32;;;;;23.00;99130.00;;;;5075016;28;20036;-64
2023/06/23 07:22:33;;;;;;;5.75;5.15;;;;;23.10;99137.00;;;;5074436;28;20072;-64
2023/06/23 07:25:01;;;;;;;5.88;5.10;;;;;23.00;99139.00;;;;5075479;28;20124;-65
2023/06/23 07:27:27;;;;;;;7.00;5.88;;;;;23.00;99135.00;;;;5075319;28;20094;-64
2023/06/23 07:29:54;;;;;;;6.68;5.20;;;;;23.10;99149.00;;;;5074861;28;20045;-64
2023/06/23 07:32:21;;;;;;;5.70;4.57;;;;;23.20;99151.00;;;;5073460;28;20148;-64
2023/06/23 07:34:47;;;;;;;5.72;5.20;;;;;23.30;99155.00;;;;5074960;28;20045;-64
2023/06/23 07:37:14;;;;;;;5.82;5.18;;;;;23.30;99158.00;;;;5073520;28;20048;-65
2023/06/23 07:39:41;;;;;;;5.90;4.78;;;;;23.30;99149.00;;;;5074635;28;20583;-65
2023/06/23 07:42:07;;;;;;;6.03;4.93;;;;;23.50;99166.00;;;;5074782;28;20048;-65
2023/06/23 07:44:36;;;;;;;6.03;5.43;;;;;23.50;99147.00;;;;5073592;28;20067;-63
2023/06/23 07:47:03;;;;;;;7.00;4.50;;;;;23.70;99160.00;;;;5073391;28;20509;-63
2023/06/23 07:49:30;;;;;;;5.28;4.78;;;;;23.70;99162.00;;;;5074330;28;20115;-63
2023/06/23 07:52:00;;;;;;;5.30;4.80;;;;;23.70;99166.00;;;;5073488;28;20045;-63
2023/06/23 07:54:28;;;;;;;6.22;4.50;;;;;23.80;99170.00;;;;5074748;28;20493;-64
2023/06/23 07:56:56;;;;;;;5.93;4.47;;;;;23.90;99161.00;;;;5073303;28;20044;-64
2023/06/23 07:59:24;;;;;;;5.30;4.07;;;;;23.90;99161.00;;;;5073266;28;20155;-63
2023/06/23 08:01:51;;;;;;;4.20;3.80;;;;;24.00;99174.00;;;;5073432;28;20119;-64
2023/06/23 08:04:18;;;;;;;3.92;3.53;;;;;24.20;99163.00;;;;5073084;28;20396;-64
2023/06/23 08:06:45;;;;;;;4.65;3.70;;;;;24.40;99155.00;;;;5074474;28;20048;-64
2023/06/23 08:09:11;;;;;;;4.47;3.92;;;;;24.50;99168.00;;;;5074040;28;20753;-64
2023/06/23 08:11:38;;;;;;;6.90;4.35;;;;;24.60;99174.00;;;;5074379;28;20473;-63
2023/06/23 08:14:05;;;;;;;6.00;4.82;;;;;24.50;99175.00;;;;5074245;28;20120;-64
2023/06/23 08:16:31;;;;;;;5.55;4.00;;;;;24.40;99175.00;;;;5074143;28;20120;-64
2023/06/23 08:18:58;;;;;;;5.05;4.57;;;;;24.60;99175.00;;;;5073915;28;20048;-64
2023/06/23 08:21:25;;;;;;;5.10;4.32;;;;;24.70;99180.00;;;;5072987;28;20540;-64
2023/06/23 08:23:51;;;;;;;4.35;3.95;;;;;24.70;99186.00;;;;5074154;28;20044;-64
2023/06/23 08:26:18;;;;;;;4.55;3.85;;;;;24.60;99205.00;;;;5074231;28;20047;-64
2023/06/23 08:28:44;;;;;;;4.28;3.85;;;;;24.60;99204.00;;;;5073959;28;20051;-63
2023/06/23 08:31:11;;;;;;;3.90;3.22;;;;;24.50;99208.00;;;;5073790;28;20493;-63
2023/06/23 08:33:39;;;;;;;4.18;3.78;;;;;24.40;99219.00;;;;5074263;28;20080;-64
2023/06/23 08:36:06;;;;;;;4.70;3.85;;;;;24.40;99215.00;;;;5074085;28;20048;-64
2023/06/23 08:38:33;;;;;;;4.03;3.58;;;;;24.40;99215.00;;;;5073846;28;20071;-64
2023/06/23 08:41:00;;;;;;;4.65;3.90;;;;;24.60;99212.00;;;;5072610;28;20128;-63
2023/06/23 08:43:27;;;;;;;6.50;4.40;;;;;24.80;99217.00;;;;5074053;28;20119;-63
2023/06/23 08:46:02;;;;;;;5.20;3.85;;;;;25.10;99220.00;;;;5073617;28;20094;-64
2023/06/23 08:48:30;;;;;;;5.25;3.25;;;;;25.20;99228.00;;;;5073688;28;20099;-64
2023/06/23 08:50:59;;;;;;;4.70;3.13;;;;;25.10;99231.00;;;;5072113;28;20045;-62
2023/06/23 08:53:26;;;;;;;3.47;3.15;;;;;25.00;99240.00;;;;5073578;28;20467;-63
2023/06/23 08:55:55;;;;;;;6.72;3.70;;;;;24.90;99240.00;;;;5073497;28;20038;-63
2023/06/23 08:58:23;;;;;;;5.05;3.17;;;;;24.90;99245.00;;;;5073115;28;20063;-64
2023/06/23 09:00:51;;;;;;;4.70;3.20;;;;;24.90;99242.00;;;;5073113;28;20044;-64
2023/06/23 09:03:22;;;;;;;7.45;3.70;;;;;24.90;99248.00;;;;5073428;28;20044;-63
2023/06/23 09:05:49;;;;;;;3.92;3.35;;;;;25.00;99257.00;;;;5073520;28;20075;-63
2023/06/23 09:08:16;;;;;;;3.75;2.95;;;;;25.00;99253.00;;;;5072090;28;20083;-62
2023/06/23 09:10:43;;;;;;;4.72;3.10;;;;;25.00;99256.00;;;;5072619;28;20383;-61
2023/06/23 09:13:18;;;;;;;3.38;3.05;;;;;25.00;99259.00;;;;5073319;28;20091;-61
2023/06/23 09:15:46;;;;;;;5.40;3.30;;;;;24.90;99259.00;;;;5073446;28;20045;-62
2023/06/23 09:18:31;;;;;;;3.63;2.80;;;;;24.80;99252.00;;;;5071631;28;20052;-63
2023/06/23 09:21:01;;;;;;;5.18;3.42;;;;;24.70;99248.00;;;;5072859;28;20037;-63
2023/06/23 09:23:31;;;;;;;6.85;3.55;;;;;24.80;99249.00;;;;5055634;28;20040;-62
2023/06/23 09:25:59;;;;;;;4.00;3.13;;;;;25.00;99245.00;;;;5074066;28;20493;-62
2023/06/23 09:28:28;;;;;;;3.05;2.70;;;;;25.20;99244.00;;;;5072962;28;20143;-60
2023/06/23 09:31:00;;;;;;;3.78;3.15;;;;;25.60;99243.00;;;;5073888;28;20043;-62
2023/06/23 09:33:27;;;;;;;3.60;3.20;;;;;25.90;99253.00;;;;5081070;28;20049;-62
2023/06/23 09:35:55;;;;;;;4.72;3.28;;;;;25.90;99254.00;;;;5077537;28;20080;-62
2023/06/23 09:38:24;;;;;;;3.42;3.08;;;;;25.90;99257.00;;;;5072192;28;20053;-61
2023/06/23 09:41:20;;;;;;;4.10;2.92;;;;;25.70;99257.00;;;;5073029;28;20068;-62
2023/06/23 09:43:52;;;;;;;4.93;3.13;;;;;25.60;99256.00;;;;5063173;28;20106;-62
2023/06/23 09:46:20;;;;;;;3.72;2.90;;;;;25.60;99259.00;;;;5071742;28;20044;-62
2023/06/23 09:48:49;;;;;;;4.25;2.72;;;;;25.50;99266.00;;;;5072501;28;20394;-62
2023/06/23 09:51:19;;;;;;;4.00;3.60;;;;;25.60;99255.00;;;;5072323;28;20047;-62
2023/06/23 09:53:47;;;;;;;4.43;3.03;;;;;25.70;99252.00;;;;5071316;28;20052;-62
2023/06/23 09:56:16;;;;;;;2.95;2.70;;;;;26.00;99258.00;;;;5072826;28;20071;-62
2023/06/23 09:58:44;;;;;;;3.55;3.00;;;;;26.10;99266.00;;;;5071407;28;20420;-61
2023/06/23 10:01:12;;;;;;;5.65;3.50;;;;;26.00;99262.00;;;;5070895;28;20456;-62
2023/06/23 10:03:43;;;;;;;4.60;2.63;;;;;26.00;99261.00;;;;5073214;28;20102;-61
2023/06/23 10:06:26;;;;;;;2.70;2.50;;;;;26.30;99255.00;;;;5073360;28;20055;-62
2023/06/23 10:08:57;;;;;;;3.28;2.97;;;;;26.50;99266.00;;;;5072969;28;20044;-61
2023/06/23 10:11:30;;;;;;;3.92;2.60;;;;;26.40;99269.00;;;;5073216;28;20409;-62
2023/06/23 10:14:05;;;;;;;4.28;2.70;;;;;26.20;99277.00;;;;5073209;28;20052;-62
2023/06/23 10:16:41;;;;;;;4.53;2.83;;;;;26.10;99269.00;;;;5072349;28;20521;-62
2023/06/23 10:19:08;;;;;;;8.32;2.90;;;;;26.30;99269.00;;;;5071909;28;20044;-61
2023/06/23 10:21:35;;;;;;;5.47;3.20;;;;;26.60;99265.00;;;;5073357;28;20036;-61
2023/06/23 10:24:08;;;;;;;4.50;2.83;;;;;26.70;99261.00;;;;5073688;28;20044;-61
2023/06/23 10:26:37;;;;;;;5.10;2.80;;;;;26.70;99275.00;;;;5073593;28;20048;-62
2023/06/23 10:29:06;;;;;;;2.95;2.53;;;;;26.80;99271.00;;;;5072528;28;20052;-63
2023/06/23 10:31:37;;;;;;;3.05;2.75;;;;;26.70;99289.00;;;;5055895;28;20079;-61
2023/06/23 10:34:05;;;;;;;3.38;2.85;;;;;26.50;99290.00;;;;5075333;28;20048;-62
2023/06/23 10:36:38;;;;;;;5.03;2.80;;;;;26.50;99286.00;;;;5058693;28;20537;-63
2023/06/23 10:39:06;;;;;;;4.75;2.85;;;;;26.70;99285.00;;;;5075334;28;20134;-62
2023/06/23 10:41:34;;;;;;;3.65;2.70;;;;;26.90;99283.00;;;;5079471;28;20115;-63
2023/06/23 10:44:03;;;;;;;4.82;2.58;;;;;26.90;99288.00;;;;5079743;28;20106;-62
2023/06/23 10:46:31;;;;;;;3.78;2.58;;;;;27.00;99277.00;;;;5079258;28;20127;-62
2023/06/23 10:48:58;;;;;;;4.00;3.40;;;;;27.00;99272.00;;;;5078507;28;20048;-61
2023/06/23 10:51:26;;;;;;;2.40;2.20;;;;;27.10;99273.00;;;;5062256;28;20058;-63
2023/06/23 10:54:02;;;;;;;4.18;2.85;;;;;27.20;99283.00;;;;5079711;28;20041;-63
2023/06/23 10:56:44;;;;;;;2.90;2.22;;;;;27.20;99279.00;;;;5077942;28;20044;-62
2023/06/23 10:59:28;;;;;;;3.75;2.40;;;;;27.20;99275.00;;;;5077025;28;20794;-61
2023/06/23 11:02:07;;;;;;;5.95;3.20;;;;;27.30;99275.00;;;;5076176;28;20029;-61
2023/06/23 11:04:38;;;;;;;3.55;2.50;;;;;27.30;99282.00;;;;5075195;28;20102;-62
2023/06/23 11:07:10;;;;;;;2.60;2.40;;;;;27.50;99284.00;;;;5076145;28;20117;-63
2023/06/23 11:09:44;;;;;;;4.40;2.70;;;;;27.60;99288.00;;;;5074777;28;20048;-61
2023/06/23 11:12:42;;;;;;;3.80;2.90;;;;;27.50;99284.00;;;;5077636;28;20040;-62
2023/06/23 11:15:15;;;;;;;2.95;2.45;;;;;27.40;99280.00;;;;5075079;28;20436;-62
2023/06/23 11:18:06;;;;;;;2.88;2.67;;;;;27.30;99277.00;;;;5075827;28;20523;-61
2023/06/23 11:20:37;;;;;;;4.18;2.60;;;;;27.30;99278.00;;;;5075372;28;20098;-61
2023/06/23 11:23:05;;;;;;;3.05;2.10;;;;;27.40;99287.00;;;;5075460;28;20409;-60
2023/06/23 11:25:44;;;;;;;3.22;2.50;;;;;27.40;99289.00;;;;5075383;28;20068;-62
2023/06/23 11:28:37;;;;;;;2.65;2.45;;;;;27.60;99276.00;;;;5074659;28;20049;-60
2023/06/23 11:31:05;;;;;;;2.40;2.15;;;;;27.70;99285.00;;;;5075395;28;20044;-62
2023/06/23 11:33:37;;;;;;;3.90;2.60;;;;;27.70;99283.00;;;;5074290;28;20056;-61
2023/06/23 11:36:05;;;;;;;2.83;2.50;;;;;27.60;99290.00;;;;5075700;28;20068;-62
2023/06/23 11:38:33;;;;;;;2.55;2.35;;;;;27.40;99289.00;;;;5057392;28;20082;-60
2023/06/23 11:41:01;;;;;;;3.95;2.40;;;;;27.40;99278.00;;;;5075035;28;20406;-61
2023/06/23 11:43:38;;;;;;;2.90;2.42;;;;;27.40;99286.00;;;;5074171;28;20049;-61
2023/06/23 11:46:09;;;;;;;3.05;2.30;;;;;27.40;99289.00;;;;5073808;28;20044;-63
2023/06/23 11:48:36;;;;;;;3.83;2.50;;;;;27.30;99278.00;;;;5075034;28;20520;-62
2023/06/23 11:51:06;;;;;;;3.05;2.15;;;;;27.40;99281.00;;;;5073345;28;20118;-63
2023/06/23 11:53:33;;;;;;;2.80;2.47;;;;;27.60;99269.00;;;;5074482;28;20045;-62
2023/06/23 11:56:01;;;;;;;2.97;2.10;;;;;27.80;99288.00;;;;5074597;28;20127;-62
2023/06/23 11:58:32;;;;;;;2.50;2.30;;;;;27.80;99284.00;;;;5074582;28;20059;-61
2023/06/23 12:00:59;;;;;;;3.00;2.47;;;;;27.70;99294.00;;;;5074272;28;20119;-61
2023/06/23 12:03:29;;;;;;;3.03;2.30;;;;;27.50;99286.00;;;;5074458;28;20047;-61
2023/06/23 12:05:55;;;;;;;2.78;2.40;;;;;27.50;99289.00;;;;5074523;28;20066;-62
2023/06/23 12:08:27;;;;;;;2.83;2.55;;;;;27.50;99279.00;;;;5072898;28;20143;-62
2023/06/23 12:10:55;;;;;;;3.22;2.50;;;;;27.50;99286.00;;;;5074676;28;20041;-61
2023/06/23 12:13:22;;;;;;;2.78;2.55;;;;;27.40;99290.00;;;;5075003;28;20509;-62
2023/06/23 12:15:48;;;;;;;3.05;2.75;;;;;27.50;99286.00;;;;5074891;28;20048;-61
2023/06/23 12:18:18;;;;;;;2.90;2.60;;;;;27.60;99281.00;;;;5072733;28;20056;-61
2023/06/23 12:20:45;;;;;;;2.80;2.05;;;;;27.70;99271.00;;;;5073768;28;20381;-62
2023/06/23 12:23:13;;;;;;;4.10;2.65;;;;;27.50;99270.00;;;;5074364;28;20105;-62
2023/06/23 12:25:46;;;;;;;2.10;1.90;;;;;27.80;99289.00;;;;5072814;28;20045;-62